Terminal Aerodrome Forecast
Issued by NWS

Home | Current Version | Previous Version | Text Only | Print | Product List | Glossary On
Versions: 1 2 3 4 5 6 7 8 9 10 11 12 13 14 15
688
FTUS46 KSEW 250532
TAFBFI
TAF
KBFI 250532Z 2506/2606 17004KT P6SM SCT020 BKN050
     FM251200 16008KT P6SM SCT020 BKN045
      TEMPO 2512/2516 BKN020 BKN045
     FM251800 17008KT P6SM BKN045 BKN120
     FM260100 18012KT P6SM -RA OVC045=

USA.gov is the U.S. government's official web portal to all federal, state and local government web resources and services.